sensor_id;sensor_type;location;lat;lon;timestamp;P1;durP1;ratioP1;P2;durP2;ratioP2
44222;SDS011;29895;48.804;9.386;2023-08-31T00:01:49;5.78;;;3.20;;
44222;SDS011;29895;48.804;9.386;2023-08-31T00:04:14;7.50;;;3.33;;
44222;SDS011;29895;48.804;9.386;2023-08-31T00:06:40;4.90;;;2.95;;
44222;SDS011;29895;48.804;9.386;2023-08-31T00:09:07;10.40;;;3.22;;
44222;SDS011;29895;48.804;9.386;2023-08-31T00:11:35;6.45;;;3.30;;
44222;SDS011;29895;48.804;9.386;2023-08-31T00:14:01;4.82;;;3.05;;
44222;SDS011;29895;48.804;9.386;2023-08-31T00:16:27;7.05;;;3.40;;
44222;SDS011;29895;48.804;9.386;2023-08-31T00:18:53;4.78;;;3.17;;
44222;SDS011;29895;48.804;9.386;2023-08-31T00:21:22;4.95;;;3.33;;
44222;SDS011;29895;48.804;9.386;2023-08-31T00:23:48;6.63;;;3.47;;
44222;SDS011;29895;48.804;9.386;2023-08-31T00:26:14;8.02;;;3.40;;
44222;SDS011;29895;48.804;9.386;2023-08-31T00:28:42;6.30;;;3.47;;
44222;SDS011;29895;48.804;9.386;2023-08-31T00:31:09;5.68;;;3.17;;
44222;SDS011;29895;48.804;9.386;2023-08-31T00:33:35;6.97;;;3.05;;
44222;SDS011;29895;48.804;9.386;2023-08-31T00:36:03;5.72;;;2.60;;
44222;SDS011;29895;48.804;9.386;2023-08-31T00:38:31;7.18;;;2.83;;
44222;SDS011;29895;48.804;9.386;2023-08-31T00:40:57;7.30;;;2.85;;
44222;SDS011;29895;48.804;9.386;2023-08-31T00:43:23;8.80;;;2.65;;
44222;SDS011;29895;48.804;9.386;2023-08-31T00:45:50;7.80;;;2.72;;
44222;SDS011;29895;48.804;9.386;2023-08-31T00:48:19;7.72;;;3.30;;
44222;SDS011;29895;48.804;9.386;2023-08-31T00:50:45;5.45;;;3.20;;
44222;SDS011;29895;48.804;9.386;2023-08-31T00:53:12;7.07;;;3.20;;
44222;SDS011;29895;48.804;9.386;2023-08-31T00:55:38;7.20;;;3.10;;
44222;SDS011;29895;48.804;9.386;2023-08-31T00:58:05;9.15;;;2.83;;
44222;SDS011;29895;48.804;9.386;2023-08-31T01:05:54;5.38;;;3.35;;
44222;SDS011;29895;48.804;9.386;2023-08-31T01:08:41;5.70;;;3.10;;
44222;SDS011;29895;48.804;9.386;2023-08-31T01:11:22;7.00;;;3.47;;
44222;SDS011;29895;48.804;9.386;2023-08-31T01:14:25;7.25;;;3.60;;
44222;SDS011;29895;48.804;9.386;2023-08-31T01:16:57;8.38;;;3.15;;
44222;SDS011;29895;48.804;9.386;2023-08-31T01:24:24;8.20;;;3.15;;
44222;SDS011;29895;48.804;9.386;2023-08-31T01:26:51;7.72;;;3.38;;
44222;SDS011;29895;48.804;9.386;2023-08-31T01:29:17;5.68;;;3.33;;
44222;SDS011;29895;48.804;9.386;2023-08-31T01:31:44;8.35;;;3.72;;
44222;SDS011;29895;48.804;9.386;2023-08-31T01:34:10;6.22;;;3.42;;
44222;SDS011;29895;48.804;9.386;2023-08-31T01:36:36;5.47;;;3.13;;
44222;SDS011;29895;48.804;9.386;2023-08-31T01:39:19;4.97;;;3.50;;
44222;SDS011;29895;48.804;9.386;2023-08-31T01:41:55;8.23;;;3.55;;
44222;SDS011;29895;48.804;9.386;2023-08-31T01:44:23;8.90;;;3.95;;
44222;SDS011;29895;48.804;9.386;2023-08-31T01:46:53;8.80;;;4.03;;
44222;SDS011;29895;48.804;9.386;2023-08-31T01:49:23;6.82;;;3.70;;
44222;SDS011;29895;48.804;9.386;2023-08-31T01:51:49;7.63;;;3.38;;
44222;SDS011;29895;48.804;9.386;2023-08-31T01:54:15;8.70;;;3.80;;
44222;SDS011;29895;48.804;9.386;2023-08-31T01:56:41;10.52;;;3.42;;
44222;SDS011;29895;48.804;9.386;2023-08-31T01:59:06;9.50;;;4.00;;
44222;SDS011;29895;48.804;9.386;2023-08-31T02:01:32;11.48;;;4.07;;
44222;SDS011;29895;48.804;9.386;2023-08-31T02:03:58;7.97;;;3.85;;
44222;SDS011;29895;48.804;9.386;2023-08-31T02:06:24;6.55;;;3.75;;
44222;SDS011;29895;48.804;9.386;2023-08-31T02:08:49;10.35;;;3.53;;
44222;SDS011;29895;48.804;9.386;2023-08-31T02:11:15;7.50;;;3.70;;
44222;SDS011;29895;48.804;9.386;2023-08-31T02:13:41;6.10;;;3.28;;
44222;SDS011;29895;48.804;9.386;2023-08-31T02:16:07;5.68;;;3.33;;
44222;SDS011;29895;48.804;9.386;2023-08-31T02:18:33;5.80;;;3.42;;
44222;SDS011;29895;48.804;9.386;2023-08-31T02:20:58;8.38;;;3.70;;
44222;SDS011;29895;48.804;9.386;2023-08-31T02:23:24;7.97;;;4.05;;
44222;SDS011;29895;48.804;9.386;2023-08-31T02:25:50;6.38;;;4.00;;
44222;SDS011;29895;48.804;9.386;2023-08-31T02:28:15;9.48;;;3.63;;
44222;SDS011;29895;48.804;9.386;2023-08-31T02:30:43;6.88;;;4.38;;
44222;SDS011;29895;48.804;9.386;2023-08-31T02:33:11;7.07;;;3.63;;
44222;SDS011;29895;48.804;9.386;2023-08-31T02:35:37;6.95;;;3.30;;
44222;SDS011;29895;48.804;9.386;2023-08-31T02:38:02;8.32;;;3.88;;
44222;SDS011;29895;48.804;9.386;2023-08-31T02:40:28;6.75;;;3.67;;
44222;SDS011;29895;48.804;9.386;2023-08-31T02:42:54;6.30;;;3.90;;
44222;SDS011;29895;48.804;9.386;2023-08-31T02:45:19;7.13;;;4.00;;
44222;SDS011;29895;48.804;9.386;2023-08-31T02:47:45;8.13;;;3.47;;
44222;SDS011;29895;48.804;9.386;2023-08-31T02:50:11;7.00;;;4.22;;
44222;SDS011;29895;48.804;9.386;2023-08-31T02:52:37;11.20;;;3.88;;
44222;SDS011;29895;48.804;9.386;2023-08-31T02:55:02;5.60;;;3.75;;
44222;SDS011;29895;48.804;9.386;2023-08-31T02:57:28;8.27;;;3.85;;
44222;SDS011;29895;48.804;9.386;2023-08-31T02:59:54;7.25;;;3.80;;
44222;SDS011;29895;48.804;9.386;2023-08-31T03:02:20;7.13;;;3.60;;
44222;SDS011;29895;48.804;9.386;2023-08-31T03:04:47;7.07;;;3.92;;
44222;SDS011;29895;48.804;9.386;2023-08-31T03:07:12;6.45;;;4.03;;
44222;SDS011;29895;48.804;9.386;2023-08-31T03:09:40;8.60;;;4.70;;
44222;SDS011;29895;48.804;9.386;2023-08-31T03:12:06;13.30;;;4.63;;
44222;SDS011;29895;48.804;9.386;2023-08-31T03:14:32;7.57;;;4.38;;
44222;SDS011;29895;48.804;9.386;2023-08-31T03:16:57;8.32;;;4.65;;
44222;SDS011;29895;48.804;9.386;2023-08-31T03:19:23;8.95;;;4.35;;
44222;SDS011;29895;48.804;9.386;2023-08-31T03:21:49;5.85;;;4.18;;
44222;SDS011;29895;48.804;9.386;2023-08-31T03:24:15;6.85;;;4.13;;
44222;SDS011;29895;48.804;9.386;2023-08-31T03:26:40;8.00;;;3.92;;
44222;SDS011;29895;48.804;9.386;2023-08-31T03:29:06;9.63;;;4.97;;
44222;SDS011;29895;48.804;9.386;2023-08-31T03:31:33;5.93;;;3.78;;
44222;SDS011;29895;48.804;9.386;2023-08-31T03:33:58;9.77;;;3.80;;
44222;SDS011;29895;48.804;9.386;2023-08-31T03:36:24;8.63;;;3.88;;
44222;SDS011;29895;48.804;9.386;2023-08-31T03:38:50;6.50;;;3.75;;
44222;SDS011;29895;48.804;9.386;2023-08-31T03:41:15;8.30;;;4.00;;
44222;SDS011;29895;48.804;9.386;2023-08-31T03:43:41;7.40;;;3.75;;
44222;SDS011;29895;48.804;9.386;2023-08-31T03:46:06;11.60;;;3.30;;
44222;SDS011;29895;48.804;9.386;2023-08-31T03:48:32;8.18;;;3.38;;
44222;SDS011;29895;48.804;9.386;2023-08-31T03:50:58;6.22;;;3.28;;
44222;SDS011;29895;48.804;9.386;2023-08-31T03:53:23;6.13;;;2.90;;
44222;SDS011;29895;48.804;9.386;2023-08-31T03:55:49;11.65;;;3.30;;
44222;SDS011;29895;48.804;9.386;2023-08-31T03:58:15;5.32;;;3.05;;
44222;SDS011;29895;48.804;9.386;2023-08-31T04:00:41;5.30;;;3.05;;
44222;SDS011;29895;48.804;9.386;2023-08-31T04:03:07;7.75;;;3.30;;
44222;SDS011;29895;48.804;9.386;2023-08-31T04:05:33;7.60;;;3.10;;
44222;SDS011;29895;48.804;9.386;2023-08-31T04:08:00;7.57;;;3.35;;
44222;SDS011;29895;48.804;9.386;2023-08-31T04:10:26;6.57;;;2.90;;
44222;SDS011;29895;48.804;9.386;2023-08-31T04:12:52;4.90;;;2.72;;
44222;SDS011;29895;48.804;9.386;2023-08-31T04:15:17;6.63;;;2.78;;
44222;SDS011;29895;48.804;9.386;2023-08-31T04:17:43;7.75;;;2.50;;
44222;SDS011;29895;48.804;9.386;2023-08-31T04:20:10;6.90;;;2.88;;
44222;SDS011;29895;48.804;9.386;2023-08-31T04:22:36;4.60;;;2.67;;
44222;SDS011;29895;48.804;9.386;2023-08-31T04:25:01;7.00;;;3.20;;
44222;SDS011;29895;48.804;9.386;2023-08-31T04:27:27;6.28;;;2.95;;
44222;SDS011;29895;48.804;9.386;2023-08-31T04:29:56;7.43;;;2.60;;
44222;SDS011;29895;48.804;9.386;2023-08-31T04:32:25;6.22;;;3.10;;
44222;SDS011;29895;48.804;9.386;2023-08-31T04:34:51;9.25;;;3.33;;
44222;SDS011;29895;48.804;9.386;2023-08-31T04:37:17;5.15;;;3.10;;
44222;SDS011;29895;48.804;9.386;2023-08-31T04:39:43;8.80;;;2.97;;
44222;SDS011;29895;48.804;9.386;2023-08-31T04:42:08;5.78;;;2.97;;
44222;SDS011;29895;48.804;9.386;2023-08-31T04:44:34;7.32;;;3.33;;
44222;SDS011;29895;48.804;9.386;2023-08-31T04:47:00;6.13;;;3.05;;
44222;SDS011;29895;48.804;9.386;2023-08-31T04:49:26;8.20;;;3.38;;
44222;SDS011;29895;48.804;9.386;2023-08-31T04:51:52;5.72;;;3.20;;
44222;SDS011;29895;48.804;9.386;2023-08-31T04:54:18;6.57;;;3.00;;
44222;SDS011;29895;48.804;9.386;2023-08-31T04:56:44;10.55;;;3.17;;
44222;SDS011;29895;48.804;9.386;2023-08-31T04:59:09;6.55;;;3.17;;
44222;SDS011;29895;48.804;9.386;2023-08-31T05:01:35;7.50;;;2.88;;
44222;SDS011;29895;48.804;9.386;2023-08-31T05:04:01;7.43;;;3.30;;
44222;SDS011;29895;48.804;9.386;2023-08-31T05:06:28;7.05;;;2.60;;
44222;SDS011;29895;48.804;9.386;2023-08-31T05:08:54;8.45;;;3.20;;
44222;SDS011;29895;48.804;9.386;2023-08-31T05:11:19;7.57;;;2.85;;
44222;SDS011;29895;48.804;9.386;2023-08-31T05:13:46;5.00;;;2.88;;
44222;SDS011;29895;48.804;9.386;2023-08-31T05:16:12;6.35;;;2.92;;
44222;SDS011;29895;48.804;9.386;2023-08-31T05:18:38;7.40;;;2.53;;
44222;SDS011;29895;48.804;9.386;2023-08-31T05:21:05;9.43;;;3.03;;
44222;SDS011;29895;48.804;9.386;2023-08-31T05:23:31;6.03;;;2.60;;
44222;SDS011;29895;48.804;9.386;2023-08-31T05:25:57;8.45;;;3.08;;
44222;SDS011;29895;48.804;9.386;2023-08-31T05:28:23;7.32;;;2.63;;
44222;SDS011;29895;48.804;9.386;2023-08-31T05:30:49;10.85;;;3.00;;
44222;SDS011;29895;48.804;9.386;2023-08-31T05:33:16;6.20;;;2.53;;
44222;SDS011;29895;48.804;9.386;2023-08-31T05:35:42;7.95;;;2.95;;
44222;SDS011;29895;48.804;9.386;2023-08-31T05:38:08;8.60;;;2.67;;
44222;SDS011;29895;48.804;9.386;2023-08-31T05:40:36;14.05;;;3.08;;
44222;SDS011;29895;48.804;9.386;2023-08-31T05:43:02;6.22;;;2.40;;
44222;SDS011;29895;48.804;9.386;2023-08-31T05:45:33;6.80;;;2.80;;
44222;SDS011;29895;48.804;9.386;2023-08-31T05:48:02;6.40;;;2.65;;
44222;SDS011;29895;48.804;9.386;2023-08-31T05:50:30;5.38;;;2.53;;
44222;SDS011;29895;48.804;9.386;2023-08-31T05:52:56;6.53;;;2.70;;
44222;SDS011;29895;48.804;9.386;2023-08-31T05:55:26;7.22;;;2.50;;
44222;SDS011;29895;48.804;9.386;2023-08-31T05:57:55;5.22;;;2.72;;
44222;SDS011;29895;48.804;9.386;2023-08-31T06:00:23;7.93;;;2.60;;
44222;SDS011;29895;48.804;9.386;2023-08-31T06:02:58;7.75;;;2.47;;
44222;SDS011;29895;48.804;9.386;2023-08-31T06:05:26;7.75;;;2.53;;
44222;SDS011;29895;48.804;9.386;2023-08-31T06:07:56;5.60;;;1.85;;
44222;SDS011;29895;48.804;9.386;2023-08-31T06:10:27;6.47;;;2.10;;
44222;SDS011;29895;48.804;9.386;2023-08-31T06:13:06;8.30;;;2.22;;
44222;SDS011;29895;48.804;9.386;2023-08-31T06:15:43;6.22;;;2.75;;
44222;SDS011;29895;48.804;9.386;2023-08-31T06:18:12;4.68;;;2.53;;
44222;SDS011;29895;48.804;9.386;2023-08-31T06:20:42;5.47;;;2.08;;
44222;SDS011;29895;48.804;9.386;2023-08-31T06:23:13;6.30;;;2.50;;
44222;SDS011;29895;48.804;9.386;2023-08-31T06:25:39;12.80;;;2.65;;
44222;SDS011;29895;48.804;9.386;2023-08-31T06:28:06;6.60;;;2.10;;
44222;SDS011;29895;48.804;9.386;2023-08-31T06:30:36;7.15;;;2.58;;
44222;SDS011;29895;48.804;9.386;2023-08-31T06:33:03;5.97;;;2.78;;
44222;SDS011;29895;48.804;9.386;2023-08-31T06:35:30;4.47;;;2.50;;
44222;SDS011;29895;48.804;9.386;2023-08-31T06:37:58;7.68;;;2.40;;
44222;SDS011;29895;48.804;9.386;2023-08-31T06:40:24;6.38;;;2.33;;
44222;SDS011;29895;48.804;9.386;2023-08-31T06:42:53;5.20;;;2.50;;
44222;SDS011;29895;48.804;9.386;2023-08-31T06:45:20;6.63;;;2.50;;
44222;SDS011;29895;48.804;9.386;2023-08-31T06:47:46;8.00;;;2.55;;
44222;SDS011;29895;48.804;9.386;2023-08-31T06:50:11;5.28;;;2.28;;
44222;SDS011;29895;48.804;9.386;2023-08-31T06:52:37;8.70;;;2.50;;
44222;SDS011;29895;48.804;9.386;2023-08-31T06:55:03;6.07;;;2.33;;
44222;SDS011;29895;48.804;9.386;2023-08-31T06:57:31;5.25;;;2.33;;
44222;SDS011;29895;48.804;9.386;2023-08-31T06:59:56;7.50;;;2.40;;
44222;SDS011;29895;48.804;9.386;2023-08-31T07:02:22;4.30;;;2.08;;
44222;SDS011;29895;48.804;9.386;2023-08-31T07:04:51;8.45;;;2.20;;
44222;SDS011;29895;48.804;9.386;2023-08-31T07:07:17;9.68;;;2.25;;
44222;SDS011;29895;48.804;9.386;2023-08-31T07:09:45;7.47;;;2.50;;
44222;SDS011;29895;48.804;9.386;2023-08-31T07:12:11;6.40;;;3.08;;
44222;SDS011;29895;48.804;9.386;2023-08-31T07:14:38;7.47;;;2.58;;
44222;SDS011;29895;48.804;9.386;2023-08-31T07:17:04;5.35;;;2.55;;
44222;SDS011;29895;48.804;9.386;2023-08-31T07:19:29;6.10;;;2.08;;
44222;SDS011;29895;48.804;9.386;2023-08-31T07:21:55;6.88;;;2.40;;
44222;SDS011;29895;48.804;9.386;2023-08-31T07:24:22;6.70;;;2.30;;
44222;SDS011;29895;48.804;9.386;2023-08-31T07:26:49;6.57;;;2.60;;
44222;SDS011;29895;48.804;9.386;2023-08-31T07:29:15;4.82;;;2.42;;
44222;SDS011;29895;48.804;9.386;2023-08-31T07:31:41;5.72;;;2.22;;
44222;SDS011;29895;48.804;9.386;2023-08-31T07:34:11;7.18;;;2.17;;
44222;SDS011;29895;48.804;9.386;2023-08-31T07:36:38;5.78;;;2.03;;
44222;SDS011;29895;48.804;9.386;2023-08-31T07:39:04;6.28;;;2.03;;
44222;SDS011;29895;48.804;9.386;2023-08-31T07:41:32;5.88;;;2.40;;
44222;SDS011;29895;48.804;9.386;2023-08-31T07:43:58;7.25;;;2.40;;
44222;SDS011;29895;48.804;9.386;2023-08-31T07:46:23;4.68;;;1.88;;
44222;SDS011;29895;48.804;9.386;2023-08-31T07:48:49;6.03;;;2.00;;
44222;SDS011;29895;48.804;9.386;2023-08-31T07:51:16;6.45;;;2.28;;
44222;SDS011;29895;48.804;9.386;2023-08-31T07:53:41;6.45;;;2.08;;
44222;SDS011;29895;48.804;9.386;2023-08-31T07:56:07;4.97;;;1.83;;
44222;SDS011;29895;48.804;9.386;2023-08-31T07:58:33;5.53;;;2.00;;
44222;SDS011;29895;48.804;9.386;2023-08-31T08:00:58;5.50;;;2.00;;
44222;SDS011;29895;48.804;9.386;2023-08-31T08:03:24;5.68;;;2.20;;
44222;SDS011;29895;48.804;9.386;2023-08-31T08:05:50;4.50;;;1.83;;
44222;SDS011;29895;48.804;9.386;2023-08-31T08:08:16;6.22;;;2.33;;
44222;SDS011;29895;48.804;9.386;2023-08-31T08:10:42;6.13;;;2.10;;
44222;SDS011;29895;48.804;9.386;2023-08-31T08:13:08;4.40;;;2.15;;
44222;SDS011;29895;48.804;9.386;2023-08-31T08:15:34;6.45;;;2.30;;
44222;SDS011;29895;48.804;9.386;2023-08-31T08:18:00;5.55;;;3.20;;
44222;SDS011;29895;48.804;9.386;2023-08-31T08:20:26;5.68;;;2.30;;
44222;SDS011;29895;48.804;9.386;2023-08-31T08:22:53;6.95;;;2.20;;
44222;SDS011;29895;48.804;9.386;2023-08-31T08:25:20;5.05;;;1.98;;
44222;SDS011;29895;48.804;9.386;2023-08-31T08:27:46;5.35;;;2.22;;
44222;SDS011;29895;48.804;9.386;2023-08-31T08:30:12;3.78;;;1.77;;
44222;SDS011;29895;48.804;9.386;2023-08-31T08:32:38;7.38;;;2.03;;
44222;SDS011;29895;48.804;9.386;2023-08-31T08:35:04;6.93;;;2.50;;
44222;SDS011;29895;48.804;9.386;2023-08-31T08:37:30;6.70;;;2.15;;
44222;SDS011;29895;48.804;9.386;2023-08-31T08:39:59;4.18;;;1.70;;
44222;SDS011;29895;48.804;9.386;2023-08-31T08:42:26;6.97;;;2.40;;
44222;SDS011;29895;48.804;9.386;2023-08-31T08:44:56;5.85;;;2.05;;
44222;SDS011;29895;48.804;9.386;2023-08-31T08:47:22;5.90;;;2.75;;
44222;SDS011;29895;48.804;9.386;2023-08-31T08:49:50;5.60;;;1.95;;
44222;SDS011;29895;48.804;9.386;2023-08-31T08:52:16;7.32;;;2.17;;
44222;SDS011;29895;48.804;9.386;2023-08-31T08:54:43;5.13;;;2.15;;
44222;SDS011;29895;48.804;9.386;2023-08-31T08:57:09;5.55;;;2.47;;
44222;SDS011;29895;48.804;9.386;2023-08-31T08:59:35;4.85;;;2.20;;
44222;SDS011;29895;48.804;9.386;2023-08-31T09:02:01;5.63;;;2.05;;
44222;SDS011;29895;48.804;9.386;2023-08-31T09:04:28;5.55;;;2.40;;
44222;SDS011;29895;48.804;9.386;2023-08-31T09:06:55;6.65;;;2.55;;
44222;SDS011;29895;48.804;9.386;2023-08-31T09:09:21;7.07;;;2.15;;
44222;SDS011;29895;48.804;9.386;2023-08-31T09:11:47;8.00;;;2.60;;
44222;SDS011;29895;48.804;9.386;2023-08-31T09:14:19;8.10;;;2.38;;
44222;SDS011;29895;48.804;9.386;2023-08-31T09:16:46;6.75;;;2.45;;
44222;SDS011;29895;48.804;9.386;2023-08-31T09:19:25;4.30;;;2.00;;
44222;SDS011;29895;48.804;9.386;2023-08-31T09:21:55;4.03;;;1.73;;
44222;SDS011;29895;48.804;9.386;2023-08-31T09:24:22;8.10;;;2.17;;
44222;SDS011;29895;48.804;9.386;2023-08-31T09:26:57;5.13;;;1.85;;
44222;SDS011;29895;48.804;9.386;2023-08-31T09:29:23;4.82;;;2.05;;
44222;SDS011;29895;48.804;9.386;2023-08-31T09:31:49;5.18;;;2.13;;
44222;SDS011;29895;48.804;9.386;2023-08-31T09:34:16;8.82;;;2.10;;
44222;SDS011;29895;48.804;9.386;2023-08-31T09:36:43;6.40;;;2.80;;
44222;SDS011;29895;48.804;9.386;2023-08-31T09:39:09;6.80;;;2.00;;
44222;SDS011;29895;48.804;9.386;2023-08-31T09:41:51;7.38;;;2.58;;
44222;SDS011;29895;48.804;9.386;2023-08-31T09:44:20;8.32;;;2.60;;
44222;SDS011;29895;48.804;9.386;2023-08-31T09:46:47;12.25;;;2.40;;
44222;SDS011;29895;48.804;9.386;2023-08-31T09:49:13;6.25;;;2.00;;
44222;SDS011;29895;48.804;9.386;2023-08-31T09:51:39;5.22;;;2.22;;
44222;SDS011;29895;48.804;9.386;2023-08-31T09:54:09;7.05;;;2.20;;
44222;SDS011;29895;48.804;9.386;2023-08-31T09:56:37;6.32;;;2.53;;
44222;SDS011;29895;48.804;9.386;2023-08-31T10:01:35;11.25;;;2.60;;
44222;SDS011;29895;48.804;9.386;2023-08-31T10:04:01;6.40;;;2.33;;
44222;SDS011;29895;48.804;9.386;2023-08-31T10:06:28;7.88;;;1.75;;
44222;SDS011;29895;48.804;9.386;2023-08-31T10:08:56;4.78;;;2.17;;
44222;SDS011;29895;48.804;9.386;2023-08-31T10:11:22;3.60;;;1.80;;
44222;SDS011;29895;48.804;9.386;2023-08-31T10:13:52;10.23;;;2.42;;
44222;SDS011;29895;48.804;9.386;2023-08-31T10:16:19;4.75;;;2.17;;
44222;SDS011;29895;48.804;9.386;2023-08-31T10:18:46;5.13;;;2.17;;
44222;SDS011;29895;48.804;9.386;2023-08-31T10:21:15;3.75;;;2.03;;
44222;SDS011;29895;48.804;9.386;2023-08-31T10:23:45;6.40;;;2.10;;
44222;SDS011;29895;48.804;9.386;2023-08-31T10:26:11;7.70;;;2.17;;
44222;SDS011;29895;48.804;9.386;2023-08-31T10:28:47;5.15;;;2.10;;
44222;SDS011;29895;48.804;9.386;2023-08-31T10:31:16;4.75;;;1.90;;
44222;SDS011;29895;48.804;9.386;2023-08-31T10:36:13;6.15;;;2.40;;
44222;SDS011;29895;48.804;9.386;2023-08-31T10:39:01;4.80;;;2.15;;
44222;SDS011;29895;48.804;9.386;2023-08-31T10:41:55;4.60;;;2.28;;
44222;SDS011;29895;48.804;9.386;2023-08-31T10:44:24;4.70;;;1.85;;
44222;SDS011;29895;48.804;9.386;2023-08-31T10:46:52;6.55;;;1.98;;
44222;SDS011;29895;48.804;9.386;2023-08-31T10:49:18;6.18;;;2.60;;
44222;SDS011;29895;48.804;9.386;2023-08-31T10:51:46;7.72;;;2.40;;
44222;SDS011;29895;48.804;9.386;2023-08-31T10:57:03;4.60;;;2.22;;
44222;SDS011;29895;48.804;9.386;2023-08-31T10:59:45;6.85;;;1.85;;
44222;SDS011;29895;48.804;9.386;2023-08-31T11:12:52;5.40;;;2.17;;
44222;SDS011;29895;48.804;9.386;2023-08-31T11:15:20;4.68;;;2.03;;
44222;SDS011;29895;48.804;9.386;2023-08-31T11:17:49;7.40;;;2.25;;
44222;SDS011;29895;48.804;9.386;2023-08-31T11:20:20;8.77;;;2.97;;
44222;SDS011;29895;48.804;9.386;2023-08-31T11:22:47;7.53;;;2.47;;
44222;SDS011;29895;48.804;9.386;2023-08-31T11:25:15;7.63;;;2.10;;
44222;SDS011;29895;48.804;9.386;2023-08-31T11:27:42;5.70;;;2.50;;
44222;SDS011;29895;48.804;9.386;2023-08-31T11:30:17;5.47;;;2.05;;
44222;SDS011;29895;48.804;9.386;2023-08-31T11:32:50;5.32;;;2.53;;
44222;SDS011;29895;48.804;9.386;2023-08-31T11:35:18;9.90;;;2.17;;
44222;SDS011;29895;48.804;9.386;2023-08-31T11:37:49;5.95;;;2.20;;
44222;SDS011;29895;48.804;9.386;2023-08-31T11:40:16;9.90;;;2.50;;
44222;SDS011;29895;48.804;9.386;2023-08-31T11:42:41;9.07;;;2.63;;
44222;SDS011;29895;48.804;9.386;2023-08-31T11:45:07;5.90;;;2.00;;
44222;SDS011;29895;48.804;9.386;2023-08-31T11:47:35;5.78;;;2.25;;
44222;SDS011;29895;48.804;9.386;2023-08-31T11:50:01;7.53;;;2.58;;
44222;SDS011;29895;48.804;9.386;2023-08-31T11:52:30;9.88;;;2.65;;
44222;SDS011;29895;48.804;9.386;2023-08-31T11:54:56;13.57;;;3.50;;
44222;SDS011;29895;48.804;9.386;2023-08-31T11:57:25;10.98;;;2.40;;
44222;SDS011;29895;48.804;9.386;2023-08-31T11:59:53;6.53;;;2.58;;
44222;SDS011;29895;48.804;9.386;2023-08-31T12:02:20;8.73;;;2.40;;
44222;SDS011;29895;48.804;9.386;2023-08-31T12:04:46;8.30;;;2.50;;
44222;SDS011;29895;48.804;9.386;2023-08-31T12:07:16;7.10;;;2.70;;
44222;SDS011;29895;48.804;9.386;2023-08-31T12:09:42;4.47;;;2.25;;
44222;SDS011;29895;48.804;9.386;2023-08-31T12:12:14;7.15;;;2.60;;
44222;SDS011;29895;48.804;9.386;2023-08-31T12:14:41;7.65;;;2.53;;
44222;SDS011;29895;48.804;9.386;2023-08-31T12:17:08;5.20;;;2.17;;
44222;SDS011;29895;48.804;9.386;2023-08-31T12:19:36;6.82;;;2.38;;
44222;SDS011;29895;48.804;9.386;2023-08-31T12:22:03;6.88;;;2.72;;
44222;SDS011;29895;48.804;9.386;2023-08-31T12:24:29;7.93;;;2.70;;
44222;SDS011;29895;48.804;9.386;2023-08-31T12:27:01;5.93;;;2.70;;
44222;SDS011;29895;48.804;9.386;2023-08-31T12:29:27;6.07;;;2.75;;
44222;SDS011;29895;48.804;9.386;2023-08-31T12:31:53;8.98;;;2.53;;
44222;SDS011;29895;48.804;9.386;2023-08-31T12:34:18;6.63;;;3.00;;
44222;SDS011;29895;48.804;9.386;2023-08-31T12:36:44;8.88;;;2.70;;
44222;SDS011;29895;48.804;9.386;2023-08-31T12:39:10;10.63;;;3.53;;
44222;SDS011;29895;48.804;9.386;2023-08-31T12:41:37;7.70;;;2.80;;
44222;SDS011;29895;48.804;9.386;2023-08-31T12:44:03;6.13;;;2.45;;
44222;SDS011;29895;48.804;9.386;2023-08-31T12:46:30;7.25;;;2.40;;
44222;SDS011;29895;48.804;9.386;2023-08-31T12:48:56;9.75;;;2.85;;
44222;SDS011;29895;48.804;9.386;2023-08-31T12:51:22;9.25;;;3.00;;
44222;SDS011;29895;48.804;9.386;2023-08-31T12:53:48;6.57;;;3.00;;
44222;SDS011;29895;48.804;9.386;2023-08-31T12:56:13;5.90;;;2.50;;
44222;SDS011;29895;48.804;9.386;2023-08-31T12:58:46;10.63;;;2.80;;
44222;SDS011;29895;48.804;9.386;2023-08-31T13:01:15;6.97;;;2.50;;
44222;SDS011;29895;48.804;9.386;2023-08-31T13:03:41;7.60;;;2.75;;
44222;SDS011;29895;48.804;9.386;2023-08-31T13:06:06;5.78;;;2.40;;
44222;SDS011;29895;48.804;9.386;2023-08-31T13:08:32;7.47;;;2.45;;
44222;SDS011;29895;48.804;9.386;2023-08-31T13:10:57;6.93;;;2.83;;
44222;SDS011;29895;48.804;9.386;2023-08-31T13:13:23;6.32;;;2.70;;
44222;SDS011;29895;48.804;9.386;2023-08-31T13:15:49;8.25;;;2.60;;
44222;SDS011;29895;48.804;9.386;2023-08-31T13:18:15;7.10;;;2.47;;
44222;SDS011;29895;48.804;9.386;2023-08-31T13:20:41;8.57;;;2.50;;
44222;SDS011;29895;48.804;9.386;2023-08-31T13:23:14;9.73;;;2.40;;
44222;SDS011;29895;48.804;9.386;2023-08-31T13:25:40;7.25;;;2.20;;
44222;SDS011;29895;48.804;9.386;2023-08-31T13:28:05;9.35;;;3.10;;
44222;SDS011;29895;48.804;9.386;2023-08-31T13:30:31;7.55;;;2.65;;
44222;SDS011;29895;48.804;9.386;2023-08-31T13:32:57;8.43;;;2.78;;
44222;SDS011;29895;48.804;9.386;2023-08-31T13:35:22;8.70;;;3.10;;
44222;SDS011;29895;48.804;9.386;2023-08-31T13:37:48;7.70;;;2.50;;
44222;SDS011;29895;48.804;9.386;2023-08-31T13:40:14;5.55;;;2.20;;
44222;SDS011;29895;48.804;9.386;2023-08-31T13:42:48;6.72;;;2.53;;
44222;SDS011;29895;48.804;9.386;2023-08-31T13:45:22;7.60;;;2.55;;
44222;SDS011;29895;48.804;9.386;2023-08-31T13:47:48;6.20;;;2.10;;
44222;SDS011;29895;48.804;9.386;2023-08-31T13:50:14;5.88;;;2.42;;
44222;SDS011;29895;48.804;9.386;2023-08-31T13:52:40;4.95;;;1.98;;
44222;SDS011;29895;48.804;9.386;2023-08-31T13:55:06;7.75;;;2.17;;
44222;SDS011;29895;48.804;9.386;2023-08-31T13:57:33;6.63;;;2.72;;
44222;SDS011;29895;48.804;9.386;2023-08-31T13:59:58;5.03;;;2.33;;
44222;SDS011;29895;48.804;9.386;2023-08-31T14:02:25;6.47;;;2.40;;
44222;SDS011;29895;48.804;9.386;2023-08-31T14:04:51;7.45;;;2.60;;
44222;SDS011;29895;48.804;9.386;2023-08-31T14:07:17;5.50;;;2.20;;
44222;SDS011;29895;48.804;9.386;2023-08-31T14:09:43;6.47;;;2.70;;
44222;SDS011;29895;48.804;9.386;2023-08-31T14:12:09;5.70;;;2.03;;
44222;SDS011;29895;48.804;9.386;2023-08-31T14:14:34;6.85;;;2.30;;
44222;SDS011;29895;48.804;9.386;2023-08-31T14:17:00;7.40;;;2.47;;
44222;SDS011;29895;48.804;9.386;2023-08-31T14:19:26;7.10;;;2.30;;
44222;SDS011;29895;48.804;9.386;2023-08-31T14:21:52;5.78;;;2.25;;
44222;SDS011;29895;48.804;9.386;2023-08-31T14:24:18;5.32;;;2.17;;
44222;SDS011;29895;48.804;9.386;2023-08-31T14:26:44;4.65;;;2.00;;
44222;SDS011;29895;48.804;9.386;2023-08-31T14:29:10;7.78;;;3.25;;
44222;SDS011;29895;48.804;9.386;2023-08-31T14:31:36;8.50;;;2.42;;
44222;SDS011;29895;48.804;9.386;2023-08-31T14:34:02;6.20;;;2.47;;
44222;SDS011;29895;48.804;9.386;2023-08-31T14:36:28;6.07;;;2.38;;
44222;SDS011;29895;48.804;9.386;2023-08-31T14:38:53;7.22;;;2.20;;
44222;SDS011;29895;48.804;9.386;2023-08-31T14:41:19;4.45;;;2.20;;
44222;SDS011;29895;48.804;9.386;2023-08-31T14:43:45;8.90;;;2.50;;
44222;SDS011;29895;48.804;9.386;2023-08-31T14:46:10;9.30;;;2.50;;
44222;SDS011;29895;48.804;9.386;2023-08-31T14:48:36;6.22;;;2.83;;
44222;SDS011;29895;48.804;9.386;2023-08-31T14:51:02;10.93;;;4.93;;
44222;SDS011;29895;48.804;9.386;2023-08-31T14:53:28;6.35;;;2.60;;
44222;SDS011;29895;48.804;9.386;2023-08-31T14:55:54;7.03;;;2.60;;
44222;SDS011;29895;48.804;9.386;2023-08-31T14:58:19;8.60;;;2.70;;
44222;SDS011;29895;48.804;9.386;2023-08-31T15:00:45;9.75;;;2.83;;
44222;SDS011;29895;48.804;9.386;2023-08-31T15:03:11;5.00;;;2.30;;
44222;SDS011;29895;48.804;9.386;2023-08-31T15:05:37;7.85;;;2.80;;
44222;SDS011;29895;48.804;9.386;2023-08-31T15:08:06;6.55;;;3.13;;
44222;SDS011;29895;48.804;9.386;2023-08-31T15:10:32;10.25;;;2.50;;
44222;SDS011;29895;48.804;9.386;2023-08-31T15:12:57;5.03;;;2.10;;
44222;SDS011;29895;48.804;9.386;2023-08-31T15:15:27;8.30;;;2.10;;
44222;SDS011;29895;48.804;9.386;2023-08-31T15:17:56;8.18;;;2.08;;